CA-0367 weather

CLOSED Strathmore (Duke) Airport
Alberta, Canada

Public forecast

Using degrees Celsius for public forecast. Weather courtesy of forecast.io.

METAR (pilot weather report)

Closest report is Calgary International Airport, 15.7 nm (29.1 km) WNW. Retrieved 2019/06/16 01:00 UTC (55 minutes ago):

CYYC 160100Z CCA 36008G15KT 30SM FEW055CB FEW130 FEW180 FEW200 20/05 A3001 RMK CB1AC1AC1CI1 AC TR CI TR VIS W 15 CB CLD SLP165 DENSITY ALT 5000FT

TAF (pilot weather forecast)

Forecast is more than 12 hours old.

Closest forecast is Calgary International Airport, 15.7 nm (29.1 km) WNW. Retrieved 2019/06/15 00:39 UTC (1 day ago):

TAF CYYC 152338Z 1600/1624 35010KT P6SM SCT060 TEMPO 1600/1603 P6SM -SHRA BKN060 PROB30 1600/1603 VRB15G25KT 5SM TSRA BKN050CB FM160300 01008KT P6SM SCT080 BECMG 1603/1605 28005KT FM162000 35008KT P6SM BKN080 RMK NXT FCST BY 160300Z